Time;durP1;ratioP1;P1;durP2;ratioP2;P2;SDS_P1;SDS_P2;PMS_P1;PMS_P2;Temp;Humidity;BMP_temperature;BMP_pressure;BME280_temperature;BME280_humidity;BME280_pressure;Samples;Min_cycle;Max_cycle;Signal;HPM_P1;HPM_P2
2022/06/06 00:00:14;;;;;;;5.12;4.05;;;;;;;25.82;52.02;100615.71;1736802;81;21066;-86
2022/06/06 00:02:40;;;;;;;4.58;4.17;;;;;;;25.81;52.03;100599.34;1736702;81;21038;-87
2022/06/06 00:05:11;;;;;;;4.33;3.92;;;;;;;25.81;52.02;100597.36;1737111;81;21043;-84
2022/06/06 00:07:37;;;;;;;4.30;3.87;;;;;;;25.81;52.02;100573.67;1737022;81;22144;-85
2022/06/06 00:10:10;;;;;;;4.12;3.72;;;;;;;25.80;52.02;100567.09;1732508;81;21134;-85
2022/06/06 00:12:37;;;;;;;4.55;4.15;;;;;;;25.81;52.01;100569.50;1726939;83;21628;-87
2022/06/06 00:15:05;;;;;;;5.17;4.20;;;;;;;25.80;52.02;100574.05;1727268;81;21080;-87
2022/06/06 00:17:31;;;;;;;4.37;3.62;;;;;;;25.81;52.01;100606.31;1727050;83;21570;-87
2022/06/06 00:19:58;;;;;;;4.75;3.98;;;;;;;25.79;52.02;100649.88;1733893;81;21025;-86
2022/06/06 00:22:25;;;;;;;4.95;4.35;;;;;;;25.80;52.02;100662.62;1736562;82;21061;-86
2022/06/06 00:24:51;;;;;;;4.72;4.22;;;;;;;25.81;52.02;100646.14;1732842;81;21541;-85
2022/06/06 00:27:18;;;;;;;4.50;4.05;;;;;;;25.81;52.01;100632.78;1732297;81;20998;-86
2022/06/06 00:29:44;;;;;;;4.53;4.08;;;;;;;25.81;52.02;100616.06;1732097;81;21073;-86
2022/06/06 00:34:55;;;;;;;4.35;3.95;;;;;;;25.80;52.02;100608.28;1714236;82;21069;-85
2022/06/06 00:37:28;;;;;;;4.40;4.00;;;;;;;25.79;51.97;100590.55;1731920;81;21027;-86
2022/06/06 00:39:55;;;;;;;4.47;4.03;;;;;;;25.80;51.99;100601.92;1732253;81;21110;-87
2022/06/06 00:42:28;;;;;;;4.25;3.62;;;;;;;25.78;51.99;100616.20;1736396;82;21051;-85
2022/06/06 00:45:29;;;;;;;4.10;3.70;;;;;;;25.80;51.99;100622.83;1736651;82;21288;-85
2022/06/06 00:48:25;;;;;;;4.20;3.80;;;;;;;25.79;51.98;100628.16;1736447;82;21079;-87
2022/06/06 00:51:10;;;;;;;4.87;4.20;;;;;;;25.78;51.97;100625.95;1736141;82;21577;-85
2022/06/06 00:53:53;;;;;;;4.45;4.05;;;;;;;25.78;51.98;100609.82;1736711;81;21071;-87
2022/06/06 00:56:30;;;;;;;4.20;3.80;;;;;;;25.77;51.98;100592.28;1723134;82;21061;-85
2022/06/06 00:59:00;;;;;;;4.37;3.98;;;;;;;25.77;51.99;100613.77;1709160;82;21140;-87
2022/06/06 01:01:27;;;;;;;5.75;3.85;;;;;;;25.77;51.99;100641.63;1708662;82;21023;-87
2022/06/06 01:03:56;;;;;;;4.72;4.33;;;;;;;25.76;52.03;100666.48;1709062;82;21541;-86
2022/06/06 01:06:24;;;;;;;4.45;4.00;;;;;;;25.77;52.06;100684.83;1709502;83;21596;-87
2022/06/06 01:08:51;;;;;;;4.20;3.77;;;;;;;25.77;52.04;100661.14;1684189;82;21137;-87
2022/06/06 01:11:17;;;;;;;4.03;3.62;;;;;;;25.76;52.04;100622.70;1684032;83;21156;-87
2022/06/06 01:13:45;;;;;;;4.22;3.60;;;;;;;25.76;52.04;100587.88;1716092;82;21630;-85
2022/06/06 01:16:31;;;;;;;4.47;4.00;;;;;;;25.76;52.04;100580.09;1725996;81;21048;-87
2022/06/06 01:19:32;;;;;;;3.60;3.30;;;;;;;25.76;52.04;100583.69;1711627;82;21061;-86
2022/06/06 01:22:14;;;;;;;;;;;;;;;25.75;52.04;100576.52;1710959;82;21389;-86
2022/06/06 01:25:30;;;;;;;4.83;3.52;;;;;;;25.75;52.02;100557.59;1714629;82;21940;-86
2022/06/06 01:28:25;;;;;;;4.22;3.50;;;;;;;25.74;52.01;100576.29;1717292;83;21066;-85
2022/06/06 01:30:55;;;;;;;3.98;3.45;;;;;;;25.73;52.00;100561.31;1717977;83;21065;-85
2022/06/06 01:33:21;;;;;;;4.07;3.67;;;;;;;25.72;52.00;100561.08;1718092;82;21106;-85
2022/06/06 01:35:48;;;;;;;4.00;3.60;;;;;;;25.72;52.01;100562.47;1718459;83;21301;-87
2022/06/06 01:38:16;;;;;;;4.53;3.87;;;;;;;25.72;52.04;100570.25;1718222;83;21076;-86
2022/06/06 01:41:05;;;;;;;4.12;3.72;;;;;;;25.72;52.04;100569.44;1717882;83;21057;-84
2022/06/06 01:43:37;;;;;;;3.90;3.42;;;;;;;25.73;52.06;100568.27;1717680;83;21109;-88
2022/06/06 01:46:08;;;;;;;4.08;3.50;;;;;;;25.74;52.06;100565.72;1718016;82;21042;-87
2022/06/06 01:48:39;;;;;;;8.93;3.87;;;;;;;25.72;52.06;100575.82;1718107;83;21085;-85
2022/06/06 01:51:15;;;;;;;4.50;3.80;;;;;;;25.73;52.06;100590.56;1718043;83;21124;-87
2022/06/06 01:53:41;;;;;;;4.37;3.98;;;;;;;25.71;52.05;100603.48;1717494;82;21058;-87
2022/06/06 01:56:10;;;;;;;3.98;3.45;;;;;;;25.73;52.05;100607.28;1718200;81;21026;-88
2022/06/06 01:58:37;;;;;;;4.17;3.75;;;;;;;25.73;52.06;100610.08;1718029;82;21147;-87
2022/06/06 02:01:03;;;;;;;5.22;3.30;;;;;;;25.74;52.07;100603.34;1718016;82;21066;-86
2022/06/06 02:03:31;;;;;;;4.58;3.60;;;;;;;25.73;52.08;100606.70;1717916;83;21190;-87
2022/06/06 02:05:57;;;;;;;5.12;3.60;;;;;;;25.73;52.07;100607.28;1718203;83;21136;-87
2022/06/06 02:08:24;;;;;;;3.87;3.50;;;;;;;25.73;52.07;100612.28;1718066;83;21120;-88
2022/06/06 02:10:50;;;;;;;4.55;3.52;;;;;;;25.74;52.07;100635.39;1717537;81;21603;-87
2022/06/06 02:13:16;;;;;;;3.87;3.50;;;;;;;25.74;52.05;100628.42;1717871;82;21120;-87
2022/06/06 02:15:43;;;;;;;3.75;3.25;;;;;;;25.74;52.03;100600.55;1717971;83;21112;-86
2022/06/06 02:18:16;;;;;;;4.72;3.72;;;;;;;25.74;52.05;100615.88;1717808;82;21081;-86
2022/06/06 02:20:43;;;;;;;3.70;3.30;;;;;;;25.74;52.03;100643.75;1718034;83;21763;-87
2022/06/06 02:23:09;;;;;;;3.40;3.10;;;;;;;25.73;52.03;100633.18;1717556;83;21160;-87
2022/06/06 02:25:36;;;;;;;3.65;3.25;;;;;;;25.74;52.01;100604.73;1717928;82;21128;-87
2022/06/06 02:28:03;;;;;;;3.67;3.27;;;;;;;25.74;52.03;100590.80;1718290;83;21148;-87
2022/06/06 02:30:32;;;;;;;3.50;3.20;;;;;;;25.74;52.02;100600.55;1717941;83;21057;-87
2022/06/06 02:32:58;;;;;;;3.80;3.45;;;;;;;25.74;52.02;100613.91;1734973;81;21040;-87
2022/06/06 02:35:28;;;;;;;4.50;3.25;;;;;;;25.74;52.02;100635.39;1754362;81;21562;-88
2022/06/06 02:37:56;;;;;;;3.72;3.02;;;;;;;25.74;52.04;100644.56;1753279;81;23047;-87
2022/06/06 02:40:23;;;;;;;3.50;3.20;;;;;;;25.74;52.01;100656.28;1754067;81;21146;-87
2022/06/06 02:42:49;;;;;;;3.17;2.83;;;;;;;25.74;52.00;100664.06;1754053;81;21103;-87
2022/06/06 02:45:16;;;;;;;3.77;3.15;;;;;;;25.74;51.98;100673.82;1754117;81;21035;-87
2022/06/06 02:47:45;;;;;;;3.50;3.20;;;;;;;25.73;51.95;100693.67;1728539;81;21498;-86
2022/06/06 02:50:11;;;;;;;3.80;3.37;;;;;;;25.73;51.96;100698.66;1754192;81;21514;-87
2022/06/06 02:52:39;;;;;;;3.45;3.15;;;;;;;25.74;51.98;100699.48;1753775;81;21079;-87
2022/06/06 02:55:08;;;;;;;3.47;3.17;;;;;;;25.73;51.98;100695.88;1754189;81;21098;-85
2022/06/06 02:57:47;;;;;;;4.78;3.35;;;;;;;25.73;51.96;100670.80;1754413;81;21591;-86
2022/06/06 03:00:21;;;;;;;3.52;3.22;;;;;;;25.74;51.94;100617.27;1753831;81;21573;-87
2022/06/06 03:02:48;;;;;;;3.40;2.98;;;;;;;25.73;51.94;100591.95;1752931;80;21079;-86
2022/06/06 03:05:14;;;;;;;3.42;3.12;;;;;;;25.73;51.94;100610.89;1754094;81;21256;-86
2022/06/06 03:07:53;;;;;;;3.30;2.95;;;;;;;25.73;51.94;100625.40;1753977;81;21044;-85
2022/06/06 03:11:00;;;;;;;3.50;3.15;;;;;;;25.73;51.93;100624.00;1753947;81;21074;-87
2022/06/06 03:14:04;;;;;;;3.30;3.00;;;;;;;25.72;51.93;100612.63;1748642;81;21040;-87
2022/06/06 03:20:47;;;;;;;3.67;3.25;;;;;;;25.71;51.91;100623.57;1675854;85;21190;-86
2022/06/06 03:23:39;;;;;;;3.65;3.10;;;;;;;25.70;51.91;100624.73;1700162;81;21133;-87
2022/06/06 03:26:26;;;;;;;3.62;3.10;;;;;;;25.69;51.92;100618.92;1720902;82;21041;-87
2022/06/06 03:29:00;;;;;;;3.60;3.20;;;;;;;25.68;51.96;100608.94;1721309;83;21755;-86
2022/06/06 03:31:35;;;;;;;3.35;3.05;;;;;;;25.67;51.94;100615.12;1719953;83;21060;-88
2022/06/06 03:34:10;;;;;;;3.40;3.10;;;;;;;25.67;51.94;100619.30;1721405;83;22149;-86
2022/06/06 03:37:12;;;;;;;3.52;2.92;;;;;;;25.66;51.98;100616.28;1720947;83;21081;-85
2022/06/06 03:40:04;;;;;;;3.80;3.20;;;;;;;25.67;51.96;100619.87;1721534;83;21120;-88
2022/06/06 03:42:45;;;;;;;3.87;3.17;;;;;;;25.66;51.93;100627.42;1720859;83;21141;-87
2022/06/06 03:45:34;;;;;;;3.50;3.20;;;;;;;25.66;51.93;100635.78;1706077;83;21492;-88
2022/06/06 03:48:37;;;;;;;3.40;3.10;;;;;;;25.67;51.93;100649.13;1721006;83;22134;-87
2022/06/06 03:51:36;;;;;;;4.17;3.52;;;;;;;25.66;51.97;100656.67;1721188;83;21686;-86
2022/06/06 03:54:41;;;;;;;3.35;2.87;;;;;;;25.66;51.94;100663.64;1720732;83;21066;-86
2022/06/06 03:57:15;;;;;;;3.83;3.10;;;;;;;25.67;51.94;100677.00;1721120;82;21116;-86
2022/06/06 03:59:43;;;;;;;3.22;3.00;;;;;;;25.65;51.94;100674.55;1730932;81;21168;-86
2022/06/06 04:02:14;;;;;;;4.55;2.83;;;;;;;25.65;51.97;100685.70;1720851;81;21117;-85
2022/06/06 04:04:40;;;;;;;3.40;2.50;;;;;;;25.60;51.95;100692.91;1721382;83;21200;-86
2022/06/06 04:07:07;;;;;;;4.35;2.62;;;;;;;25.50;51.89;100683.66;1720919;83;21524;-86
2022/06/06 04:09:34;;;;;;;2.95;2.55;;;;;;;25.41;52.01;100685.77;1721085;83;21088;-87
2022/06/06 04:12:30;;;;;;;3.00;2.22;;;;;;;25.38;52.00;100685.06;1721155;83;21204;-86
2022/06/06 04:15:10;;;;;;;3.58;2.20;;;;;;;25.39;51.97;100685.30;1723653;81;21119;-89
2022/06/06 04:17:54;;;;;;;3.02;2.60;;;;;;;25.37;51.85;100689.84;1723742;81;21481;-88
2022/06/06 04:20:46;;;;;;;4.10;2.62;;;;;;;25.37;51.93;100698.20;1752261;81;21036;-88
2022/06/06 04:23:39;;;;;;;5.95;2.27;;;;;;;25.36;51.92;100704.92;1720990;81;21078;-83
2022/06/06 04:26:34;;;;;;;2.98;2.67;;;;;;;25.32;51.85;100706.80;1719965;81;21093;-83
2022/06/06 04:29:26;;;;;;;3.10;2.55;;;;;;;25.34;51.97;100721.16;1727510;83;21127;-84
2022/06/06 04:32:07;;;;;;;3.58;2.70;;;;;;;25.34;51.95;100721.74;1727331;81;21573;-83
2022/06/06 04:34:50;;;;;;;3.33;2.20;;;;;;;25.34;51.98;100717.56;1702881;83;21095;-83
2022/06/06 04:37:28;;;;;;;4.30;3.08;;;;;;;25.32;51.94;100713.76;1688629;83;20979;-86
2022/06/06 04:40:21;;;;;;;4.03;2.67;;;;;;;25.29;51.97;100727.58;1698530;83;21666;-81
2022/06/06 04:42:59;;;;;;;2.95;2.25;;;;;;;25.28;51.98;100733.73;1702261;83;21689;-79
2022/06/06 04:45:34;;;;;;;4.20;2.08;;;;;;;25.28;51.97;100742.66;1725302;81;21053;-79
2022/06/06 04:48:00;;;;;;;5.72;2.08;;;;;;;25.29;51.95;100747.86;1697999;83;21739;-80
2022/06/06 04:50:27;;;;;;;5.37;1.95;;;;;;;25.26;51.88;100751.93;1681056;83;21082;-77
2022/06/06 04:53:02;;;;;;;8.65;2.42;;;;;;;25.25;51.91;100754.51;1696296;83;22285;-81
2022/06/06 04:55:29;;;;;;;12.05;2.00;;;;;;;25.23;51.92;100753.45;1703513;83;21497;-80
2022/06/06 04:57:56;;;;;;;4.15;1.90;;;;;;;25.23;51.94;100763.77;1729006;81;20964;-78
2022/06/06 05:00:24;;;;;;;2.72;1.40;;;;;;;25.18;51.85;100757.86;1705772;83;21381;-80
2022/06/06 05:02:51;;;;;;;12.75;1.80;;;;;;;25.09;51.89;100767.49;1687945;82;20984;-81
2022/06/06 05:05:17;;;;;;;6.83;1.60;;;;;;;25.07;52.15;100769.25;1701074;83;21136;-82
2022/06/06 05:08:07;;;;;;;5.47;2.00;;;;;;;25.07;52.17;100773.43;1733902;80;21159;-82
2022/06/06 05:11:02;;;;;;;7.87;2.50;;;;;;;25.05;52.06;100770.16;1716421;81;21083;-84
2022/06/06 05:13:50;;;;;;;7.85;2.00;;;;;;;25.05;52.06;100770.16;1724842;81;22212;-84
2022/06/06 05:16:39;;;;;;;5.15;1.62;;;;;;;25.10;52.17;100776.90;1667178;83;21090;-84
2022/06/06 05:19:23;;;;;;;6.70;1.80;;;;;;;25.09;52.08;100779.44;1681254;83;21081;-84
2022/06/06 05:22:01;;;;;;;2.80;1.70;;;;;;;25.09;52.05;100789.77;1705204;83;21198;-83
2022/06/06 05:24:42;;;;;;;3.10;1.70;;;;;;;25.09;52.00;100793.36;1702076;83;21236;-85
2022/06/06 05:27:44;;;;;;;4.53;1.90;;;;;;;25.07;51.89;100800.45;1668461;84;21107;-84
2022/06/06 05:30:22;;;;;;;5.33;2.10;;;;;;;25.05;51.86;100809.14;1661780;83;21143;-84
2022/06/06 05:33:09;;;;;;;4.25;1.70;;;;;;;25.06;51.90;100802.42;1730433;81;21067;-83
2022/06/06 05:36:13;;;;;;;3.08;1.52;;;;;;;25.09;51.81;100807.28;1715569;81;21490;-82
2022/06/06 05:38:48;;;;;;;4.25;1.82;;;;;;;25.10;51.81;100806.13;1719337;81;21977;-82
2022/06/06 05:41:29;;;;;;;2.52;1.55;;;;;;;25.11;51.81;100806.37;1691544;83;21119;-79
2022/06/06 05:44:22;;;;;;;3.90;1.75;;;;;;;25.12;51.82;100809.97;1689587;83;21086;-79
2022/06/06 05:47:14;;;;;;;4.12;1.50;;;;;;;25.10;51.78;100815.88;1689400;83;21098;-82
2022/06/06 05:50:30;;;;;;;5.60;1.82;;;;;;;25.12;51.80;100812.14;1700267;83;21179;-83
2022/06/06 05:53:36;;;;;;;9.30;2.27;;;;;;;25.14;51.86;100814.59;1706005;81;21091;-82
2022/06/06 05:56:20;;;;;;;10.75;2.08;;;;;;;25.17;51.94;100811.10;1676012;82;21076;-84
2022/06/06 05:59:00;;;;;;;10.80;2.10;;;;;;;25.21;52.12;100805.88;1699149;82;21131;-84
2022/06/06 06:01:42;;;;;;;;;;;;;;;25.23;52.33;100799.40;1704069;81;21095;-86
2022/06/06 06:04:34;;;;;;;6.47;1.82;;;;;;;25.26;52.52;100809.83;1708751;81;20999;-84
2022/06/06 06:07:45;;;;;;;8.73;2.12;;;;;;;25.28;52.38;100813.67;1753957;80;21138;-87
2022/06/06 06:10:34;;;;;;;4.05;2.10;;;;;;;25.27;52.33;100815.64;1757078;80;21573;-89
2022/06/06 06:13:43;;;;;;;12.73;2.55;;;;;;;25.27;52.29;100821.20;1767078;79;21533;-87
2022/06/06 06:16:10;;;;;;;10.48;2.08;;;;;;;25.28;52.28;100824.81;1761196;80;21282;-88
2022/06/06 06:19:10;;;;;;;7.65;2.25;;;;;;;25.29;52.27;100822.27;1728303;80;39505;-83
2022/06/06 06:21:49;;;;;;;7.20;2.10;;;;;;;25.28;52.24;100817.27;1757067;80;21148;-89
2022/06/06 06:24:22;;;;;;;9.50;2.27;;;;;;;25.29;52.18;100823.66;1761564;80;21016;-87
2022/06/06 06:26:48;;;;;;;6.90;2.25;;;;;;;25.30;52.14;100820.50;1738694;80;21129;-88
2022/06/06 06:29:18;;;;;;;5.50;2.17;;;;;;;25.33;52.12;100819.80;1731477;81;21572;-84
2022/06/06 06:32:23;;;;;;;2.72;1.95;;;;;;;25.36;52.07;100816.33;1732869;81;25227;-87
2022/06/06 06:35:09;;;;;;;5.97;2.12;;;;;;;25.37;52.02;100820.75;1730052;81;21152;-85
2022/06/06 06:37:56;;;;;;;4.67;1.80;;;;;;;25.38;51.94;100820.95;1739125;81;21089;-85
2022/06/06 06:40:55;;;;;;;4.97;1.60;;;;;;;25.41;51.86;100811.11;1702250;83;21126;-82
2022/06/06 06:43:56;;;;;;;3.47;2.47;;;;;;;25.42;51.79;100814.09;1586323;82;21097;-85
2022/06/06 06:46:29;;;;;;;;;;;;;;;25.42;51.64;100809.92;1666529;84;21644;-88
2022/06/06 06:49:01;;;;;;;3.50;1.40;;;;;;;25.39;51.44;100805.88;1661577;84;20411;-85
2022/06/06 06:52:03;;;;;;;5.33;2.00;;;;;;;25.37;51.46;100806.82;1674332;84;21111;-85
2022/06/06 06:55:22;;;;;;;9.23;2.02;;;;;;;25.37;51.53;100811.58;1693594;81;21122;-85
2022/06/06 06:58:35;;;;;;;10.72;1.98;;;;;;;25.37;51.53;100812.97;1690471;83;21138;-85
2022/06/06 07:01:17;;;;;;;8.53;1.80;;;;;;;25.37;51.37;100818.54;1637987;86;21300;-85
2022/06/06 07:10:09;;;;;;;6.30;1.98;;;;;;;25.31;51.00;100819.92;1692048;82;21098;-83
2022/06/06 07:13:27;;;;;;;5.53;2.08;;;;;;;25.28;50.79;100815.06;1662237;85;21139;-82
2022/06/06 07:16:00;;;;;;;5.95;1.50;;;;;;;25.26;50.70;100811.22;1674082;84;21080;-82
2022/06/06 07:18:29;;;;;;;5.00;1.80;;;;;;;25.27;50.55;100819.00;1692128;81;21585;-84
2022/06/06 07:21:00;;;;;;;2.27;1.42;;;;;;;25.25;50.41;100819.34;1676010;84;21066;-80
2022/06/06 07:23:28;;;;;;;4.35;1.50;;;;;;;25.25;50.35;100815.16;1671671;84;21233;-81
2022/06/06 07:25:55;;;;;;;5.55;2.00;;;;;;;25.27;50.38;100819.00;1665351;83;21874;-81
2022/06/06 07:28:22;;;;;;;3.27;1.85;;;;;;;25.29;50.31;100818.88;1693978;82;21054;-80
2022/06/06 07:31:23;;;;;;;2.67;1.55;;;;;;;25.32;50.23;100817.38;1658546;83;21070;-80
2022/06/06 07:34:26;;;;;;;;;;;;;;;25.33;50.16;100814.83;1653870;85;21091;-78
2022/06/06 07:37:24;;;;;;;3.35;2.50;;;;;;;25.32;50.04;100816.80;1660021;85;20200;-81
2022/06/06 07:40:05;;;;;;;3.52;2.40;;;;;;;25.32;50.12;100820.16;1696505;81;21101;-81
2022/06/06 07:42:49;;;;;;;4.25;1.45;;;;;;;25.32;50.04;100818.77;1730606;81;21130;-79
2022/06/06 07:45:30;;;;;;;5.20;2.12;;;;;;;25.32;49.91;100823.77;1698666;83;21067;-80
2022/06/06 07:48:32;;;;;;;8.65;2.17;;;;;;;25.32;49.92;100825.73;1695953;83;21098;-80
2022/06/06 07:51:20;;;;;;;8.25;2.37;;;;;;;25.34;49.95;100826.18;1695589;83;21087;-80
2022/06/06 07:54:10;;;;;;;10.10;1.82;;;;;;;25.34;50.01;100833.14;1723851;81;21055;-80
2022/06/06 07:57:14;;;;;;;9.60;1.92;;;;;;;25.32;50.03;100834.09;1721225;81;22047;-80
2022/06/06 08:00:09;;;;;;;6.55;2.10;;;;;;;25.31;50.16;100831.88;1724847;81;21108;-81
2022/06/06 08:03:11;;;;;;;10.78;2.60;;;;;;;25.31;50.19;100836.05;1663312;83;21087;-79
2022/06/06 08:06:03;;;;;;;10.78;3.12;;;;;;;25.32;50.33;100833.51;1684071;83;21512;-79
2022/06/06 08:09:02;;;;;;;5.75;1.92;;;;;;;25.32;50.35;100832.12;1685091;82;21704;-80
2022/06/06 08:11:45;;;;;;;3.70;2.10;;;;;;;25.33;50.08;100846.25;1677811;82;21771;-81
2022/06/06 08:14:20;;;;;;;4.08;2.00;;;;;;;25.32;49.84;100827.94;1683563;83;21158;-81
2022/06/06 08:17:01;;;;;;;3.67;1.52;;;;;;;25.33;49.74;100832.93;1681285;83;21115;-80
2022/06/06 08:19:44;;;;;;;2.65;1.77;;;;;;;25.33;49.70;100833.72;1680679;83;21098;-80
2022/06/06 08:22:10;;;;;;;6.47;2.10;;;;;;;25.33;49.58;100837.11;1662060;83;21078;-80
2022/06/06 08:24:43;;;;;;;6.47;1.75;;;;;;;25.33;49.57;100844.86;1687646;83;21685;-80
2022/06/06 08:27:15;;;;;;;3.75;2.40;;;;;;;25.35;49.49;100850.09;1705192;81;21057;-80
2022/06/06 08:29:43;;;;;;;4.03;2.08;;;;;;;25.35;49.50;100840.34;1694427;83;21682;-81
2022/06/06 08:32:10;;;;;;;5.30;2.20;;;;;;;25.36;49.46;100850.33;1684386;82;21125;-80
2022/06/06 08:34:37;;;;;;;6.80;2.75;;;;;;;25.37;49.39;100858.92;1730925;81;21088;-80
2022/06/06 08:37:46;;;;;;;4.75;2.30;;;;;;;25.39;49.35;100851.83;1724706;81;22800;-81
2022/06/06 08:40:51;;;;;;;4.22;1.80;;;;;;;25.40;49.27;100854.04;1727668;81;21498;-80
2022/06/06 08:43:48;;;;;;;7.00;2.17;;;;;;;25.38;49.14;100847.41;1724401;81;21108;-79
2022/06/06 08:46:41;;;;;;;14.60;2.47;;;;;;;25.39;49.09;100845.45;1705314;83;21121;-79
2022/06/06 08:52:43;;;;;;;11.03;1.85;;;;;;;25.41;48.98;100848.70;1733296;81;21925;-79
2022/06/06 08:55:24;;;;;;;12.47;2.58;;;;;;;25.41;48.87;100848.70;1708449;82;21099;-79
2022/06/06 08:58:20;;;;;;;8.38;2.80;;;;;;;25.40;48.86;100848.47;1709428;81;21072;-83
2022/06/06 09:01:18;;;;;;;7.42;2.22;;;;;;;25.40;48.93;100856.25;1704916;82;21075;-81
2022/06/06 09:04:22;;;;;;;9.98;2.10;;;;;;;25.42;48.93;100848.91;1719826;81;21097;-84
2022/06/06 09:07:26;;;;;;;4.90;1.62;;;;;;;25.41;48.97;100852.31;1691206;83;21602;-88
2022/06/06 09:10:13;;;;;;;5.85;1.77;;;;;;;25.44;48.93;100836.86;1713560;80;21090;-86
2022/06/06 09:13:24;;;;;;;5.72;2.12;;;;;;;25.46;48.83;100835.94;1724992;81;21124;-82
2022/06/06 09:16:35;;;;;;;10.23;2.10;;;;;;;25.46;48.79;100832.55;1695861;83;21158;-84
2022/06/06 09:19:33;;;;;;;6.75;1.50;;;;;;;25.47;48.82;100838.36;1692335;83;21551;-82
2022/06/06 09:22:37;;;;;;;5.15;1.60;;;;;;;25.45;48.76;100836.52;1718824;83;22290;-81
2022/06/06 09:25:35;;;;;;;5.20;1.75;;;;;;;25.46;48.71;100841.52;1707695;82;21087;-82
2022/06/06 09:28:27;;;;;;;4.33;1.37;;;;;;;25.45;48.66;100838.48;1712838;82;21087;-81
2022/06/06 09:31:35;;;;;;;4.30;1.72;;;;;;;25.45;48.61;100840.70;1693206;82;21079;-82
2022/06/06 09:34:28;;;;;;;4.80;1.70;;;;;;;25.44;48.54;100836.28;1708890;82;21224;-82
2022/06/06 09:37:31;;;;;;;2.65;1.60;;;;;;;25.44;48.45;100841.85;1704142;82;21637;-83
2022/06/06 09:40:03;;;;;;;4.22;1.62;;;;;;;25.44;48.46;100838.25;1704007;82;21071;-84
2022/06/06 09:43:06;;;;;;;5.97;1.70;;;;;;;25.43;48.25;100843.58;1705266;82;21067;-85
2022/06/06 09:45:56;;;;;;;2.85;1.75;;;;;;;25.40;48.17;100845.11;1716097;82;21108;-84
2022/06/06 09:49:00;;;;;;;3.87;2.60;;;;;;;25.39;48.20;100842.08;1656414;83;24289;-83
2022/06/06 09:52:12;;;;;;;9.35;3.58;;;;;;;25.37;48.19;100845.00;1686842;82;21222;-83
2022/06/06 09:59:03;;;;;;;8.95;2.02;;;;;;;25.37;48.37;100833.28;1719255;81;21010;-83
2022/06/06 10:01:52;;;;;;;10.25;2.15;;;;;;;25.38;48.33;100839.06;1705101;83;21031;-83
2022/06/06 10:04:45;;;;;;;8.85;1.72;;;;;;;25.39;48.34;100839.30;1694976;83;21080;-83
2022/06/06 10:08:01;;;;;;;9.50;1.90;;;;;;;25.39;48.28;100835.70;1676543;83;21101;-82
2022/06/06 10:10:40;;;;;;;9.20;2.00;;;;;;;25.38;48.21;100841.84;1696693;83;21075;-83
2022/06/06 10:13:50;;;;;;;4.97;1.90;;;;;;;25.37;48.14;100833.28;1734523;81;21085;-83
2022/06/06 10:16:51;;;;;;;4.15;1.40;;;;;;;25.36;48.08;100840.00;1671952;84;21604;-84
2022/06/06 10:19:49;;;;;;;4.83;1.67;;;;;;;25.37;48.08;100833.86;1700115;82;21571;-83
2022/06/06 10:22:30;;;;;;;3.02;1.60;;;;;;;25.37;48.03;100817.96;1717437;82;21466;-84
2022/06/06 10:25:52;;;;;;;3.62;1.50;;;;;;;25.37;47.85;100826.31;1704657;83;21313;-83
2022/06/06 10:28:31;;;;;;;4.30;1.42;;;;;;;25.37;47.67;100820.75;1686503;84;21091;-83
2022/06/06 10:31:36;;;;;;;4.65;1.40;;;;;;;25.36;47.38;100823.87;1716565;82;21729;-85
2022/06/06 10:34:32;;;;;;;4.80;1.50;;;;;;;25.34;47.22;100820.03;1695038;84;21075;-84
2022/06/06 10:37:30;;;;;;;3.05;1.40;;;;;;;25.35;47.15;100820.84;1706594;82;21112;-84
2022/06/06 10:40:20;;;;;;;2.72;1.30;;;;;;;25.35;47.08;100820.27;1725121;82;20986;-85
2022/06/06 10:43:01;;;;;;;2.60;1.62;;;;;;;25.34;46.82;100813.06;1722973;82;21070;-84
2022/06/06 10:45:40;;;;;;;5.22;1.70;;;;;;;25.35;46.75;100816.67;1720572;82;21070;-85
2022/06/06 10:48:49;;;;;;;5.00;1.95;;;;;;;25.34;46.62;100818.64;1734932;81;21659;-78
2022/06/06 10:51:51;;;;;;;11.55;2.12;;;;;;;25.35;46.47;100822.23;1699735;82;22595;-81
2022/06/06 10:54:55;;;;;;;8.00;2.15;;;;;;;25.35;46.69;100811.09;1700231;83;21078;-81
2022/06/06 10:57:42;;;;;;;11.60;2.30;;;;;;;25.36;46.90;100808.55;1719114;81;21184;-81
2022/06/06 11:00:33;;;;;;;12.50;2.55;;;;;;;25.38;46.91;100806.21;1720549;82;21125;-81
2022/06/06 11:03:31;;;;;;;9.15;2.08;;;;;;;25.39;47.14;100811.44;1660796;85;21106;-82
2022/06/06 11:06:30;;;;;;;13.68;2.47;;;;;;;25.42;47.42;100811.31;1700731;84;21063;-82
2022/06/06 11:09:28;;;;;;;15.75;2.60;;;;;;;25.42;47.42;100799.59;1686807;82;22280;-80
2022/06/06 11:12:22;;;;;;;10.72;2.42;;;;;;;25.42;47.50;100805.16;1721193;81;21943;-81
2022/06/06 11:14:49;;;;;;;10.85;2.00;;;;;;;25.43;47.50;100797.62;1738441;81;21059;-81
2022/06/06 11:17:45;;;;;;;5.42;2.10;;;;;;;25.44;47.44;100795.89;1707925;82;21110;-83
2022/06/06 11:20:39;;;;;;;11.03;2.25;;;;;;;25.45;47.33;100798.91;1718463;83;21132;-84
2022/06/06 11:23:47;;;;;;;8.15;1.90;;;;;;;25.47;47.23;100801.33;1691632;83;21057;-82
2022/06/06 11:26:43;;;;;;;6.28;2.17;;;;;;;25.47;47.19;100802.72;1715142;82;21146;-82
2022/06/06 11:29:34;;;;;;;3.55;2.05;;;;;;;25.47;47.19;100796.58;1679856;83;21154;-80
2022/06/06 11:32:41;;;;;;;2.90;1.75;;;;;;;25.49;47.10;100799.02;1674959;84;21161;-81
2022/06/06 11:35:36;;;;;;;3.85;1.62;;;;;;;25.50;46.96;100791.48;1704926;82;21534;-81
2022/06/06 11:38:31;;;;;;;2.25;1.90;;;;;;;25.50;46.95;100794.27;1726043;81;21937;-82
2022/06/06 11:41:11;;;;;;;4.90;2.10;;;;;;;25.51;46.91;100799.46;1733158;81;21134;-82
2022/06/06 11:44:12;;;;;;;;;;;;;;;25.52;46.84;100796.09;1737189;81;21699;-82
2022/06/06 11:47:03;;;;;;;8.28;2.05;;;;;;;25.53;46.76;100788.83;1729392;81;20213;-82
2022/06/06 11:50:09;;;;;;;3.47;2.00;;;;;;;25.52;46.84;100783.56;1719779;81;21122;-83
2022/06/06 11:53:10;;;;;;;4.10;2.15;;;;;;;25.53;46.82;100784.65;1727848;81;21077;-80
2022/06/06 11:55:59;;;;;;;7.25;1.87;;;;;;;25.50;46.80;100776.97;1733061;81;21059;-84
2022/06/06 11:58:56;;;;;;;6.87;2.37;;;;;;;25.51;46.90;100775.78;1708175;83;21098;-82
2022/06/06 12:01:45;;;;;;;5.37;2.15;;;;;;;25.53;46.90;100767.94;1702661;81;21122;-81
2022/06/06 12:04:24;;;;;;;6.85;2.55;;;;;;;25.56;46.86;100777.55;1729634;81;21189;-84
2022/06/06 12:07:23;;;;;;;5.97;2.10;;;;;;;25.57;46.74;100770.24;1671692;84;21091;-81
2022/06/06 12:10:19;;;;;;;16.37;2.37;;;;;;;25.60;46.74;100767.32;1726947;82;21077;-82
2022/06/06 12:13:13;;;;;;;7.72;2.60;;;;;;;25.60;46.73;100762.56;1697764;83;21057;-81
2022/06/06 12:16:31;;;;;;;6.65;2.02;;;;;;;25.62;46.71;100756.66;1720645;82;21557;-81
2022/06/06 12:19:25;;;;;;;4.08;2.10;;;;;;;25.61;46.64;100761.98;1716224;82;21972;-80
2022/06/06 12:22:14;;;;;;;5.17;2.08;;;;;;;25.61;46.50;100761.98;1703977;83;21071;-82
2022/06/06 12:24:55;;;;;;;7.15;1.90;;;;;;;25.61;46.57;100763.38;1708349;82;21723;-81
2022/06/06 12:27:46;;;;;;;3.65;1.98;;;;;;;25.61;46.51;100757.23;1738341;81;21166;-79
2022/06/06 12:30:33;;;;;;;5.53;2.35;;;;;;;25.61;46.42;100761.98;1736716;81;21144;-80
2022/06/06 12:33:13;;;;;;;2.98;1.98;;;;;;;25.61;46.35;100766.16;1724118;81;21834;-79
2022/06/06 12:36:01;;;;;;;4.05;2.20;;;;;;;25.60;46.42;100768.72;1652113;84;21088;-80
2022/06/06 12:38:46;;;;;;;4.65;2.05;;;;;;;25.59;46.42;100765.11;1690047;84;21059;-79
2022/06/06 12:41:37;;;;;;;3.92;2.17;;;;;;;25.58;46.43;100767.69;1674880;84;21178;-80
2022/06/06 12:44:31;;;;;;;5.75;2.15;;;;;;;25.57;46.45;100774.42;1700828;82;21062;-82
2022/06/06 12:47:34;;;;;;;4.87;2.15;;;;;;;25.58;46.49;100780.81;1713545;82;21170;-80
2022/06/06 12:50:30;;;;;;;10.03;2.22;;;;;;;25.59;46.46;100771.30;1726594;81;21161;-82
2022/06/06 12:53:49;;;;;;;15.80;2.90;;;;;;;25.58;46.37;100765.48;1680530;83;21082;-82
2022/06/06 12:56:48;;;;;;;11.93;2.40;;;;;;;25.58;46.42;100762.13;1690599;82;21146;-81
2022/06/06 12:59:55;;;;;;;8.68;2.10;;;;;;;25.61;46.45;100757.23;1735130;81;21087;-81
2022/06/06 13:02:49;;;;;;;13.38;2.20;;;;;;;25.64;46.38;100762.66;1649242;85;21631;-81
2022/06/06 13:05:57;;;;;;;8.20;2.08;;;;;;;25.65;46.34;100762.90;1730199;81;21576;-83
2022/06/06 13:08:44;;;;;;;10.25;2.22;;;;;;;25.66;46.26;100757.56;1656183;84;21106;-82